sensor_id;sensor_type;location;lat;lon;timestamp;P1;durP1;ratioP1;P2;durP2;ratioP2
13439;SDS011;6792;57.698;11.946;2022-07-22T00:00:47;27.07;;;19.55;;
13439;SDS011;6792;57.698;11.946;2022-07-22T00:03:18;29.75;;;18.87;;
13439;SDS011;6792;57.698;11.946;2022-07-22T00:05:47;25.12;;;18.52;;
13439;SDS011;6792;57.698;11.946;2022-07-22T00:08:18;25.08;;;18.52;;
13439;SDS011;6792;57.698;11.946;2022-07-22T00:10:47;25.08;;;18.73;;
13439;SDS011;6792;57.698;11.946;2022-07-22T00:13:18;21.23;;;17.00;;
13439;SDS011;6792;57.698;11.946;2022-07-22T00:15:47;24.80;;;16.27;;
13439;SDS011;6792;57.698;11.946;2022-07-22T00:18:19;23.98;;;17.07;;
13439;SDS011;6792;57.698;11.946;2022-07-22T00:20:48;25.48;;;17.60;;
13439;SDS011;6792;57.698;11.946;2022-07-22T00:23:17;22.37;;;17.23;;
13439;SDS011;6792;57.698;11.946;2022-07-22T00:25:49;24.15;;;17.40;;
13439;SDS011;6792;57.698;11.946;2022-07-22T00:28:20;24.47;;;18.45;;
13439;SDS011;6792;57.698;11.946;2022-07-22T00:30:49;26.10;;;18.50;;
13439;SDS011;6792;57.698;11.946;2022-07-22T00:33:18;22.73;;;17.48;;
13439;SDS011;6792;57.698;11.946;2022-07-22T00:35:50;24.32;;;18.45;;
13439;SDS011;6792;57.698;11.946;2022-07-22T00:38:18;28.87;;;18.70;;
13439;SDS011;6792;57.698;11.946;2022-07-22T00:40:47;26.15;;;18.32;;
13439;SDS011;6792;57.698;11.946;2022-07-22T00:43:18;27.77;;;18.70;;
13439;SDS011;6792;57.698;11.946;2022-07-22T00:45:47;26.40;;;17.70;;
13439;SDS011;6792;57.698;11.946;2022-07-22T00:48:19;29.52;;;19.23;;
13439;SDS011;6792;57.698;11.946;2022-07-22T00:50:47;25.00;;;18.37;;
13439;SDS011;6792;57.698;11.946;2022-07-22T00:53:18;30.15;;;20.08;;
13439;SDS011;6792;57.698;11.946;2022-07-22T00:55:47;28.10;;;19.23;;
13439;SDS011;6792;57.698;11.946;2022-07-22T00:58:16;26.20;;;18.57;;
13439;SDS011;6792;57.698;11.946;2022-07-22T01:00:46;28.95;;;19.62;;
13439;SDS011;6792;57.698;11.946;2022-07-22T01:03:15;27.32;;;19.92;;
13439;SDS011;6792;57.698;11.946;2022-07-22T01:05:44;34.50;;;20.02;;
13439;SDS011;6792;57.698;11.946;2022-07-22T01:08:13;30.95;;;19.75;;
13439;SDS011;6792;57.698;11.946;2022-07-22T01:10:43;26.80;;;19.80;;
13439;SDS011;6792;57.698;11.946;2022-07-22T01:13:13;31.70;;;19.12;;
13439;SDS011;6792;57.698;11.946;2022-07-22T01:15:42;31.10;;;20.15;;
13439;SDS011;6792;57.698;11.946;2022-07-22T01:18:12;26.77;;;19.70;;
13439;SDS011;6792;57.698;11.946;2022-07-22T01:20:41;26.60;;;19.73;;
13439;SDS011;6792;57.698;11.946;2022-07-22T01:23:09;33.13;;;20.70;;
13439;SDS011;6792;57.698;11.946;2022-07-22T01:25:38;29.07;;;18.82;;
13439;SDS011;6792;57.698;11.946;2022-07-22T01:28:07;28.87;;;20.15;;
13439;SDS011;6792;57.698;11.946;2022-07-22T01:30:36;34.25;;;19.30;;
13439;SDS011;6792;57.698;11.946;2022-07-22T01:33:05;28.77;;;20.27;;
13439;SDS011;6792;57.698;11.946;2022-07-22T01:35:34;30.82;;;17.87;;
13439;SDS011;6792;57.698;11.946;2022-07-22T01:38:03;26.57;;;16.07;;
13439;SDS011;6792;57.698;11.946;2022-07-22T01:40:33;27.17;;;15.35;;
13439;SDS011;6792;57.698;11.946;2022-07-22T01:43:02;24.00;;;13.50;;
13439;SDS011;6792;57.698;11.946;2022-07-22T01:45:31;24.23;;;13.15;;
13439;SDS011;6792;57.698;11.946;2022-07-22T01:48:01;22.40;;;11.78;;
13439;SDS011;6792;57.698;11.946;2022-07-22T01:50:31;17.02;;;10.40;;
13439;SDS011;6792;57.698;11.946;2022-07-22T01:53:00;16.37;;;9.05;;
13439;SDS011;6792;57.698;11.946;2022-07-22T01:55:29;16.42;;;7.95;;
13439;SDS011;6792;57.698;11.946;2022-07-22T01:57:59;12.15;;;6.92;;
13439;SDS011;6792;57.698;11.946;2022-07-22T02:00:29;19.82;;;7.53;;
13439;SDS011;6792;57.698;11.946;2022-07-22T02:02:58;16.17;;;5.95;;
13439;SDS011;6792;57.698;11.946;2022-07-22T02:05:27;14.35;;;6.78;;
13439;SDS011;6792;57.698;11.946;2022-07-22T02:07:59;21.07;;;7.30;;
13439;SDS011;6792;57.698;11.946;2022-07-22T02:10:29;14.73;;;5.55;;
13439;SDS011;6792;57.698;11.946;2022-07-22T02:12:58;14.47;;;5.62;;
13439;SDS011;6792;57.698;11.946;2022-07-22T02:15:27;18.30;;;5.92;;
13439;SDS011;6792;57.698;11.946;2022-07-22T02:17:56;12.18;;;5.37;;
13439;SDS011;6792;57.698;11.946;2022-07-22T02:20:25;14.63;;;5.12;;
13439;SDS011;6792;57.698;11.946;2022-07-22T02:22:53;10.63;;;5.05;;
13439;SDS011;6792;57.698;11.946;2022-07-22T02:25:22;16.27;;;4.92;;
13439;SDS011;6792;57.698;11.946;2022-07-22T02:27:51;12.10;;;4.58;;
13439;SDS011;6792;57.698;11.946;2022-07-22T02:30:20;13.55;;;4.50;;
13439;SDS011;6792;57.698;11.946;2022-07-22T02:32:49;16.27;;;4.75;;
13439;SDS011;6792;57.698;11.946;2022-07-22T02:35:18;14.38;;;4.47;;
13439;SDS011;6792;57.698;11.946;2022-07-22T02:37:47;9.98;;;4.10;;
13439;SDS011;6792;57.698;11.946;2022-07-22T02:40:17;13.98;;;4.30;;
13439;SDS011;6792;57.698;11.946;2022-07-22T02:42:48;11.12;;;4.35;;
13439;SDS011;6792;57.698;11.946;2022-07-22T02:45:18;13.00;;;4.15;;
13439;SDS011;6792;57.698;11.946;2022-07-22T02:47:48;11.25;;;4.22;;
13439;SDS011;6792;57.698;11.946;2022-07-22T02:50:19;9.23;;;3.27;;
13439;SDS011;6792;57.698;11.946;2022-07-22T02:52:48;14.98;;;4.30;;
13439;SDS011;6792;57.698;11.946;2022-07-22T02:55:17;12.93;;;4.20;;
13439;SDS011;6792;57.698;11.946;2022-07-22T02:57:47;12.55;;;3.67;;
13439;SDS011;6792;57.698;11.946;2022-07-22T03:00:17;13.50;;;4.30;;
13439;SDS011;6792;57.698;11.946;2022-07-22T03:02:46;15.35;;;3.80;;
13439;SDS011;6792;57.698;11.946;2022-07-22T03:05:15;13.93;;;4.45;;
13439;SDS011;6792;57.698;11.946;2022-07-22T03:07:47;18.10;;;4.45;;
13439;SDS011;6792;57.698;11.946;2022-07-22T03:10:16;10.95;;;4.55;;
13439;SDS011;6792;57.698;11.946;2022-07-22T03:12:45;14.23;;;4.17;;
13439;SDS011;6792;57.698;11.946;2022-07-22T03:15:14;18.20;;;4.62;;
13439;SDS011;6792;57.698;11.946;2022-07-22T03:17:45;16.90;;;4.78;;
13439;SDS011;6792;57.698;11.946;2022-07-22T03:20:16;12.90;;;4.35;;
13439;SDS011;6792;57.698;11.946;2022-07-22T03:22:45;12.73;;;4.17;;
13439;SDS011;6792;57.698;11.946;2022-07-22T03:25:21;18.45;;;4.47;;
13439;SDS011;6792;57.698;11.946;2022-07-22T03:27:50;15.78;;;4.55;;
13439;SDS011;6792;57.698;11.946;2022-07-22T03:30:19;16.30;;;4.83;;
13439;SDS011;6792;57.698;11.946;2022-07-22T03:32:48;14.40;;;4.22;;
13439;SDS011;6792;57.698;11.946;2022-07-22T03:35:17;17.80;;;4.20;;
13439;SDS011;6792;57.698;11.946;2022-07-22T03:37:48;15.95;;;4.08;;
13439;SDS011;6792;57.698;11.946;2022-07-22T03:40:17;12.00;;;4.20;;
13439;SDS011;6792;57.698;11.946;2022-07-22T03:42:46;19.48;;;4.75;;
13439;SDS011;6792;57.698;11.946;2022-07-22T03:45:15;13.18;;;4.30;;
13439;SDS011;6792;57.698;11.946;2022-07-22T03:47:47;16.73;;;4.90;;
13439;SDS011;6792;57.698;11.946;2022-07-22T03:50:18;14.73;;;4.42;;
13439;SDS011;6792;57.698;11.946;2022-07-22T03:52:47;11.35;;;3.72;;
13439;SDS011;6792;57.698;11.946;2022-07-22T03:55:18;13.68;;;4.37;;
13439;SDS011;6792;57.698;11.946;2022-07-22T03:57:47;12.80;;;4.37;;
13439;SDS011;6792;57.698;11.946;2022-07-22T04:00:19;10.05;;;3.90;;
13439;SDS011;6792;57.698;11.946;2022-07-22T04:02:48;13.28;;;4.12;;
13439;SDS011;6792;57.698;11.946;2022-07-22T04:05:17;15.00;;;4.90;;
13439;SDS011;6792;57.698;11.946;2022-07-22T04:07:48;15.38;;;4.75;;
13439;SDS011;6792;57.698;11.946;2022-07-22T04:10:17;11.57;;;4.22;;
13439;SDS011;6792;57.698;11.946;2022-07-22T04:12:46;13.55;;;4.40;;
13439;SDS011;6792;57.698;11.946;2022-07-22T04:15:15;10.43;;;4.35;;
13439;SDS011;6792;57.698;11.946;2022-07-22T04:17:46;14.25;;;4.62;;
13439;SDS011;6792;57.698;11.946;2022-07-22T04:20:15;13.90;;;4.85;;
13439;SDS011;6792;57.698;11.946;2022-07-22T04:22:48;11.22;;;4.17;;
13439;SDS011;6792;57.698;11.946;2022-07-22T04:25:17;10.13;;;4.50;;
13439;SDS011;6792;57.698;11.946;2022-07-22T04:27:49;11.40;;;4.17;;
13439;SDS011;6792;57.698;11.946;2022-07-22T04:30:18;12.20;;;4.62;;
13439;SDS011;6792;57.698;11.946;2022-07-22T04:32:48;12.47;;;4.35;;
13439;SDS011;6792;57.698;11.946;2022-07-22T04:35:17;12.82;;;4.70;;
13439;SDS011;6792;57.698;11.946;2022-07-22T04:37:47;12.85;;;4.40;;
13439;SDS011;6792;57.698;11.946;2022-07-22T04:40:19;15.65;;;4.53;;
13439;SDS011;6792;57.698;11.946;2022-07-22T04:42:48;12.25;;;3.83;;
13439;SDS011;6792;57.698;11.946;2022-07-22T04:45:17;9.95;;;4.05;;
13439;SDS011;6792;57.698;11.946;2022-07-22T04:47:49;11.73;;;4.72;;
13439;SDS011;6792;57.698;11.946;2022-07-22T04:50:18;11.55;;;4.97;;
13439;SDS011;6792;57.698;11.946;2022-07-22T04:52:47;7.65;;;4.00;;
13439;SDS011;6792;57.698;11.946;2022-07-22T04:55:18;11.18;;;4.33;;
13439;SDS011;6792;57.698;11.946;2022-07-22T04:57:47;9.28;;;3.75;;
13439;SDS011;6792;57.698;11.946;2022-07-22T05:00:16;11.25;;;4.42;;
13439;SDS011;6792;57.698;11.946;2022-07-22T05:02:45;15.80;;;4.50;;
13439;SDS011;6792;57.698;11.946;2022-07-22T05:05:18;9.53;;;4.10;;
13439;SDS011;6792;57.698;11.946;2022-07-22T05:07:47;11.30;;;3.87;;
13439;SDS011;6792;57.698;11.946;2022-07-22T05:10:17;12.58;;;5.53;;
13439;SDS011;6792;57.698;11.946;2022-07-22T05:12:46;10.10;;;4.10;;
13439;SDS011;6792;57.698;11.946;2022-07-22T05:15:15;7.87;;;3.80;;
13439;SDS011;6792;57.698;11.946;2022-07-22T05:17:44;7.03;;;3.65;;
13439;SDS011;6792;57.698;11.946;2022-07-22T05:20:13;10.90;;;4.22;;
13439;SDS011;6792;57.698;11.946;2022-07-22T05:22:43;11.50;;;4.33;;
13439;SDS011;6792;57.698;11.946;2022-07-22T05:25:12;6.15;;;3.92;;
13439;SDS011;6792;57.698;11.946;2022-07-22T05:27:50;13.48;;;4.03;;
13439;SDS011;6792;57.698;11.946;2022-07-22T05:30:19;6.40;;;3.87;;
13439;SDS011;6792;57.698;11.946;2022-07-22T05:32:49;10.80;;;3.70;;
13439;SDS011;6792;57.698;11.946;2022-07-22T05:35:18;8.93;;;3.67;;
13439;SDS011;6792;57.698;11.946;2022-07-22T05:37:47;10.18;;;4.30;;
13439;SDS011;6792;57.698;11.946;2022-07-22T05:40:18;11.35;;;3.75;;
13439;SDS011;6792;57.698;11.946;2022-07-22T05:42:47;10.45;;;3.77;;
13439;SDS011;6792;57.698;11.946;2022-07-22T05:45:19;10.98;;;3.33;;
13439;SDS011;6792;57.698;11.946;2022-07-22T05:47:47;8.98;;;3.42;;
13439;SDS011;6792;57.698;11.946;2022-07-22T05:50:17;10.58;;;3.83;;
13439;SDS011;6792;57.698;11.946;2022-07-22T05:52:48;10.75;;;3.98;;
13439;SDS011;6792;57.698;11.946;2022-07-22T05:55:17;11.22;;;3.50;;
13439;SDS011;6792;57.698;11.946;2022-07-22T05:57:46;8.30;;;3.50;;
13439;SDS011;6792;57.698;11.946;2022-07-22T06:00:19;10.78;;;3.65;;
13439;SDS011;6792;57.698;11.946;2022-07-22T06:02:48;8.00;;;3.52;;
13439;SDS011;6792;57.698;11.946;2022-07-22T06:05:17;11.68;;;3.70;;
13439;SDS011;6792;57.698;11.946;2022-07-22T06:07:47;9.10;;;3.17;;
13439;SDS011;6792;57.698;11.946;2022-07-22T06:10:19;6.08;;;3.87;;
13439;SDS011;6792;57.698;11.946;2022-07-22T06:12:48;10.50;;;3.35;;
13439;SDS011;6792;57.698;11.946;2022-07-22T06:15:17;10.28;;;3.27;;
13439;SDS011;6792;57.698;11.946;2022-07-22T06:17:46;9.48;;;3.52;;
13439;SDS011;6792;57.698;11.946;2022-07-22T06:20:15;7.62;;;3.17;;
13439;SDS011;6792;57.698;11.946;2022-07-22T06:22:44;7.00;;;3.30;;
13439;SDS011;6792;57.698;11.946;2022-07-22T06:25:15;11.03;;;3.52;;
13439;SDS011;6792;57.698;11.946;2022-07-22T06:27:46;8.98;;;3.62;;
13439;SDS011;6792;57.698;11.946;2022-07-22T06:30:15;6.67;;;3.55;;
13439;SDS011;6792;57.698;11.946;2022-07-22T06:32:47;10.48;;;3.58;;
13439;SDS011;6792;57.698;11.946;2022-07-22T06:35:15;10.35;;;3.65;;
13439;SDS011;6792;57.698;11.946;2022-07-22T06:37:44;11.08;;;3.72;;
13439;SDS011;6792;57.698;11.946;2022-07-22T06:40:13;10.13;;;3.83;;
13439;SDS011;6792;57.698;11.946;2022-07-22T06:42:44;11.48;;;3.95;;
13439;SDS011;6792;57.698;11.946;2022-07-22T06:45:13;8.63;;;3.20;;
13439;SDS011;6792;57.698;11.946;2022-07-22T06:47:42;9.18;;;3.00;;
13439;SDS011;6792;57.698;11.946;2022-07-22T06:50:10;10.05;;;3.75;;
13439;SDS011;6792;57.698;11.946;2022-07-22T06:52:40;7.83;;;3.72;;
13439;SDS011;6792;57.698;11.946;2022-07-22T06:55:10;10.05;;;3.40;;
13439;SDS011;6792;57.698;11.946;2022-07-22T06:57:39;9.88;;;3.27;;
13439;SDS011;6792;57.698;11.946;2022-07-22T07:00:10;8.83;;;3.75;;
13439;SDS011;6792;57.698;11.946;2022-07-22T07:02:39;11.57;;;3.90;;
13439;SDS011;6792;57.698;11.946;2022-07-22T07:05:10;12.78;;;3.90;;
13439;SDS011;6792;57.698;11.946;2022-07-22T07:07:39;10.72;;;3.87;;
13439;SDS011;6792;57.698;11.946;2022-07-22T07:10:08;8.55;;;3.90;;
13439;SDS011;6792;57.698;11.946;2022-07-22T07:12:38;8.55;;;3.60;;
13439;SDS011;6792;57.698;11.946;2022-07-22T07:15:08;10.32;;;3.45;;
13439;SDS011;6792;57.698;11.946;2022-07-22T07:17:38;10.72;;;3.60;;
13439;SDS011;6792;57.698;11.946;2022-07-22T07:20:07;12.05;;;3.95;;
13439;SDS011;6792;57.698;11.946;2022-07-22T07:22:37;13.72;;;4.20;;
13439;SDS011;6792;57.698;11.946;2022-07-22T07:25:07;8.08;;;3.72;;
13439;SDS011;6792;57.698;11.946;2022-07-22T07:27:36;11.90;;;3.72;;
13439;SDS011;6792;57.698;11.946;2022-07-22T07:30:06;11.90;;;4.40;;
13439;SDS011;6792;57.698;11.946;2022-07-22T07:32:36;9.83;;;4.40;;
13439;SDS011;6792;57.698;11.946;2022-07-22T07:35:06;10.23;;;4.58;;
13439;SDS011;6792;57.698;11.946;2022-07-22T07:37:36;11.48;;;3.85;;
13439;SDS011;6792;57.698;11.946;2022-07-22T07:40:06;12.15;;;3.87;;
13439;SDS011;6792;57.698;11.946;2022-07-22T07:42:37;9.45;;;4.03;;
13439;SDS011;6792;57.698;11.946;2022-07-22T07:45:06;12.35;;;3.70;;
13439;SDS011;6792;57.698;11.946;2022-07-22T07:47:36;10.88;;;4.00;;
13439;SDS011;6792;57.698;11.946;2022-07-22T07:50:06;12.33;;;3.87;;
13439;SDS011;6792;57.698;11.946;2022-07-22T07:52:37;14.13;;;3.50;;
13439;SDS011;6792;57.698;11.946;2022-07-22T07:55:07;10.48;;;3.72;;
13439;SDS011;6792;57.698;11.946;2022-07-22T07:57:38;15.53;;;3.98;;
13439;SDS011;6792;57.698;11.946;2022-07-22T08:00:09;9.43;;;4.35;;
13439;SDS011;6792;57.698;11.946;2022-07-22T08:02:39;12.18;;;4.12;;
13439;SDS011;6792;57.698;11.946;2022-07-22T08:05:08;10.55;;;3.67;;
13439;SDS011;6792;57.698;11.946;2022-07-22T08:07:37;10.05;;;3.72;;
13439;SDS011;6792;57.698;11.946;2022-07-22T08:10:07;11.57;;;3.67;;
13439;SDS011;6792;57.698;11.946;2022-07-22T08:12:37;11.73;;;4.53;;
13439;SDS011;6792;57.698;11.946;2022-07-22T08:15:07;13.05;;;4.83;;
13439;SDS011;6792;57.698;11.946;2022-07-22T08:17:37;10.95;;;4.00;;
13439;SDS011;6792;57.698;11.946;2022-07-22T08:20:07;7.78;;;3.85;;
13439;SDS011;6792;57.698;11.946;2022-07-22T08:22:36;5.60;;;3.52;;
13439;SDS011;6792;57.698;11.946;2022-07-22T08:25:05;7.45;;;3.45;;
13439;SDS011;6792;57.698;11.946;2022-07-22T08:27:35;8.18;;;3.85;;
13439;SDS011;6792;57.698;11.946;2022-07-22T08:30:06;7.62;;;3.75;;
13439;SDS011;6792;57.698;11.946;2022-07-22T08:32:36;7.55;;;2.98;;
13439;SDS011;6792;57.698;11.946;2022-07-22T08:35:06;7.75;;;3.87;;
13439;SDS011;6792;57.698;11.946;2022-07-22T08:37:36;8.45;;;4.10;;
13439;SDS011;6792;57.698;11.946;2022-07-22T08:40:06;7.08;;;3.55;;
13439;SDS011;6792;57.698;11.946;2022-07-22T08:42:37;11.60;;;3.92;;
13439;SDS011;6792;57.698;11.946;2022-07-22T08:45:08;10.80;;;3.75;;
13439;SDS011;6792;57.698;11.946;2022-07-22T08:47:38;7.42;;;3.70;;
13439;SDS011;6792;57.698;11.946;2022-07-22T08:50:07;8.80;;;4.10;;
13439;SDS011;6792;57.698;11.946;2022-07-22T08:52:36;9.75;;;4.35;;
13439;SDS011;6792;57.698;11.946;2022-07-22T08:55:06;12.58;;;4.65;;
13439;SDS011;6792;57.698;11.946;2022-07-22T08:57:36;9.43;;;3.92;;
13439;SDS011;6792;57.698;11.946;2022-07-22T09:00:10;12.25;;;4.30;;
13439;SDS011;6792;57.698;11.946;2022-07-22T09:02:42;16.57;;;5.10;;
13439;SDS011;6792;57.698;11.946;2022-07-22T09:05:12;11.38;;;3.90;;
13439;SDS011;6792;57.698;11.946;2022-07-22T09:07:42;12.45;;;4.53;;
13439;SDS011;6792;57.698;11.946;2022-07-22T09:10:12;9.23;;;3.90;;
13439;SDS011;6792;57.698;11.946;2022-07-22T09:12:53;10.28;;;3.62;;
13439;SDS011;6792;57.698;11.946;2022-07-22T09:15:26;11.45;;;4.15;;
13439;SDS011;6792;57.698;11.946;2022-07-22T09:17:57;10.20;;;4.05;;
13439;SDS011;6792;57.698;11.946;2022-07-22T09:20:38;10.63;;;3.67;;
13439;SDS011;6792;57.698;11.946;2022-07-22T09:23:10;6.53;;;3.65;;
13439;SDS011;6792;57.698;11.946;2022-07-22T09:25:43;9.03;;;3.85;;
13439;SDS011;6792;57.698;11.946;2022-07-22T09:28:15;8.55;;;3.58;;
13439;SDS011;6792;57.698;11.946;2022-07-22T09:30:48;13.15;;;3.98;;
13439;SDS011;6792;57.698;11.946;2022-07-22T09:33:19;6.55;;;3.62;;
13439;SDS011;6792;57.698;11.946;2022-07-22T09:35:49;7.40;;;3.83;;
13439;SDS011;6792;57.698;11.946;2022-07-22T09:38:19;8.83;;;3.37;;
13439;SDS011;6792;57.698;11.946;2022-07-22T09:40:56;11.15;;;3.27;;
13439;SDS011;6792;57.698;11.946;2022-07-22T09:43:25;11.43;;;3.20;;
13439;SDS011;6792;57.698;11.946;2022-07-22T09:45:57;8.45;;;2.85;;
13439;SDS011;6792;57.698;11.946;2022-07-22T09:48:26;9.45;;;3.60;;
13439;SDS011;6792;57.698;11.946;2022-07-22T09:50:55;13.80;;;3.72;;
13439;SDS011;6792;57.698;11.946;2022-07-22T09:53:25;11.97;;;3.30;;
13439;SDS011;6792;57.698;11.946;2022-07-22T09:55:56;9.80;;;3.22;;
13439;SDS011;6792;57.698;11.946;2022-07-22T09:58:26;8.65;;;2.98;;
13439;SDS011;6792;57.698;11.946;2022-07-22T10:00:57;9.28;;;3.15;;
13439;SDS011;6792;57.698;11.946;2022-07-22T10:03:30;13.05;;;3.72;;
13439;SDS011;6792;57.698;11.946;2022-07-22T10:06:02;11.18;;;2.85;;
13439;SDS011;6792;57.698;11.946;2022-07-22T10:08:33;11.55;;;2.70;;
13439;SDS011;6792;57.698;11.946;2022-07-22T10:11:04;12.58;;;3.08;;
13439;SDS011;6792;57.698;11.946;2022-07-22T10:13:34;10.08;;;3.37;;
13439;SDS011;6792;57.698;11.946;2022-07-22T10:16:07;11.75;;;3.42;;
13439;SDS011;6792;57.698;11.946;2022-07-22T10:18:36;9.00;;;2.72;;
13439;SDS011;6792;57.698;11.946;2022-07-22T10:21:06;10.90;;;3.25;;
13439;SDS011;6792;57.698;11.946;2022-07-22T10:23:36;14.25;;;3.42;;
13439;SDS011;6792;57.698;11.946;2022-07-22T10:26:16;10.18;;;3.27;;
13439;SDS011;6792;57.698;11.946;2022-07-22T10:28:44;17.10;;;2.90;;
13439;SDS011;6792;57.698;11.946;2022-07-22T10:31:19;10.43;;;3.15;;
13439;SDS011;6792;57.698;11.946;2022-07-22T10:33:51;11.68;;;3.08;;
13439;SDS011;6792;57.698;11.946;2022-07-22T10:36:32;8.38;;;3.10;;
13439;SDS011;6792;57.698;11.946;2022-07-22T10:39:03;10.25;;;2.92;;
13439;SDS011;6792;57.698;11.946;2022-07-22T10:41:34;8.20;;;2.75;;
13439;SDS011;6792;57.698;11.946;2022-07-22T10:44:04;13.85;;;3.20;;
13439;SDS011;6792;57.698;11.946;2022-07-22T10:46:49;10.35;;;3.00;;
13439;SDS011;6792;57.698;11.946;2022-07-22T10:49:21;12.80;;;2.85;;
13439;SDS011;6792;57.698;11.946;2022-07-22T10:52:10;11.78;;;2.92;;
13439;SDS011;6792;57.698;11.946;2022-07-22T10:57:58;10.53;;;2.70;;
13439;SDS011;6792;57.698;11.946;2022-07-22T11:00:27;10.85;;;2.58;;
13439;SDS011;6792;57.698;11.946;2022-07-22T11:02:56;8.53;;;2.80;;
13439;SDS011;6792;57.698;11.946;2022-07-22T11:05:27;9.53;;;2.87;;
13439;SDS011;6792;57.698;11.946;2022-07-22T11:07:57;12.55;;;2.98;;
13439;SDS011;6792;57.698;11.946;2022-07-22T11:10:26;11.73;;;2.65;;
13439;SDS011;6792;57.698;11.946;2022-07-22T11:12:55;7.92;;;2.58;;
13439;SDS011;6792;57.698;11.946;2022-07-22T11:15:25;12.33;;;3.05;;
13439;SDS011;6792;57.698;11.946;2022-07-22T11:17:56;9.25;;;2.65;;
13439;SDS011;6792;57.698;11.946;2022-07-22T11:20:25;9.73;;;2.98;;
13439;SDS011;6792;57.698;11.946;2022-07-22T11:22:59;12.68;;;2.72;;
13439;SDS011;6792;57.698;11.946;2022-07-22T11:25:29;15.25;;;2.70;;
13439;SDS011;6792;57.698;11.946;2022-07-22T11:28:01;8.08;;;2.27;;
13439;SDS011;6792;57.698;11.946;2022-07-22T11:30:30;10.08;;;2.52;;
13439;SDS011;6792;57.698;11.946;2022-07-22T11:32:59;5.95;;;2.40;;
13439;SDS011;6792;57.698;11.946;2022-07-22T11:35:30;8.08;;;2.45;;
13439;SDS011;6792;57.698;11.946;2022-07-22T11:37:59;9.20;;;2.45;;
13439;SDS011;6792;57.698;11.946;2022-07-22T11:40:32;10.23;;;2.98;;
13439;SDS011;6792;57.698;11.946;2022-07-22T11:43:04;6.53;;;2.42;;
13439;SDS011;6792;57.698;11.946;2022-07-22T11:45:32;8.35;;;2.17;;
13439;SDS011;6792;57.698;11.946;2022-07-22T11:48:08;9.78;;;2.62;;
13439;SDS011;6792;57.698;11.946;2022-07-22T11:50:37;8.00;;;1.90;;
13439;SDS011;6792;57.698;11.946;2022-07-22T11:53:06;8.50;;;2.52;;
13439;SDS011;6792;57.698;11.946;2022-07-22T11:55:35;10.75;;;2.47;;
13439;SDS011;6792;57.698;11.946;2022-07-22T11:58:04;10.28;;;2.50;;
13439;SDS011;6792;57.698;11.946;2022-07-22T12:00:32;9.60;;;2.25;;
13439;SDS011;6792;57.698;11.946;2022-07-22T12:03:02;8.93;;;2.67;;
13439;SDS011;6792;57.698;11.946;2022-07-22T12:05:31;12.98;;;2.47;;
13439;SDS011;6792;57.698;11.946;2022-07-22T12:08:00;10.65;;;2.45;;
13439;SDS011;6792;57.698;11.946;2022-07-22T12:10:30;12.55;;;3.20;;
13439;SDS011;6792;57.698;11.946;2022-07-22T12:12:59;9.85;;;2.52;;
13439;SDS011;6792;57.698;11.946;2022-07-22T12:15:29;8.73;;;2.33;;
13439;SDS011;6792;57.698;11.946;2022-07-22T12:18:14;6.70;;;2.02;;
13439;SDS011;6792;57.698;11.946;2022-07-22T12:20:48;9.55;;;2.10;;
13439;SDS011;6792;57.698;11.946;2022-07-22T12:23:19;6.92;;;2.33;;
13439;SDS011;6792;57.698;11.946;2022-07-22T12:25:50;7.50;;;2.45;;
13439;SDS011;6792;57.698;11.946;2022-07-22T12:28:20;8.08;;;2.45;;
13439;SDS011;6792;57.698;11.946;2022-07-22T12:30:49;6.03;;;2.10;;
13439;SDS011;6792;57.698;11.946;2022-07-22T12:33:20;10.28;;;2.87;;
13439;SDS011;6792;57.698;11.946;2022-07-22T12:36:00;11.00;;;2.90;;
13439;SDS011;6792;57.698;11.946;2022-07-22T12:38:31;13.03;;;3.67;;
13439;SDS011;6792;57.698;11.946;2022-07-22T12:44:14;11.30;;;3.50;;
13439;SDS011;6792;57.698;11.946;2022-07-22T12:46:45;10.28;;;2.50;;
13439;SDS011;6792;57.698;11.946;2022-07-22T12:49:16;9.60;;;2.90;;
13439;SDS011;6792;57.698;11.946;2022-07-22T12:52:05;17.45;;;3.12;;
13439;SDS011;6792;57.698;11.946;2022-07-22T12:54:35;10.72;;;2.50;;
13439;SDS011;6792;57.698;11.946;2022-07-22T12:57:06;9.18;;;3.85;;
13439;SDS011;6792;57.698;11.946;2022-07-22T12:59:36;8.78;;;2.00;;
13439;SDS011;6792;57.698;11.946;2022-07-22T13:02:05;7.75;;;2.30;;
13439;SDS011;6792;57.698;11.946;2022-07-22T13:04:34;8.95;;;2.10;;
13439;SDS011;6792;57.698;11.946;2022-07-22T13:07:03;3.50;;;1.92;;
13439;SDS011;6792;57.698;11.946;2022-07-22T13:09:32;6.87;;;2.20;;
13439;SDS011;6792;57.698;11.946;2022-07-22T13:12:01;11.45;;;2.17;;
13439;SDS011;6792;57.698;11.946;2022-07-22T13:14:30;8.70;;;2.22;;
13439;SDS011;6792;57.698;11.946;2022-07-22T13:16:59;10.20;;;2.02;;
13439;SDS011;6792;57.698;11.946;2022-07-22T13:19:28;4.92;;;2.10;;
13439;SDS011;6792;57.698;11.946;2022-07-22T13:21:59;9.40;;;2.27;;
13439;SDS011;6792;57.698;11.946;2022-07-22T13:24:28;6.80;;;2.05;;
13439;SDS011;6792;57.698;11.946;2022-07-22T13:26:57;12.25;;;2.52;;
13439;SDS011;6792;57.698;11.946;2022-07-22T13:29:26;9.93;;;2.60;;
13439;SDS011;6792;57.698;11.946;2022-07-22T13:31:55;11.20;;;2.62;;
13439;SDS011;6792;57.698;11.946;2022-07-22T13:34:24;10.70;;;2.60;;
13439;SDS011;6792;57.698;11.946;2022-07-22T13:36:53;8.55;;;3.02;;
13439;SDS011;6792;57.698;11.946;2022-07-22T13:39:22;12.53;;;2.62;;
13439;SDS011;6792;57.698;11.946;2022-07-22T13:41:51;11.20;;;2.35;;
13439;SDS011;6792;57.698;11.946;2022-07-22T13:44:20;10.80;;;2.70;;
13439;SDS011;6792;57.698;11.946;2022-07-22T13:46:49;7.53;;;2.45;;
13439;SDS011;6792;57.698;11.946;2022-07-22T13:49:19;16.65;;;2.17;;
13439;SDS011;6792;57.698;11.946;2022-07-22T13:51:48;9.35;;;2.90;;
13439;SDS011;6792;57.698;11.946;2022-07-22T13:54:18;6.78;;;2.15;;
13439;SDS011;6792;57.698;11.946;2022-07-22T13:56:47;8.28;;;2.55;;
13439;SDS011;6792;57.698;11.946;2022-07-22T13:59:17;10.55;;;2.30;;
13439;SDS011;6792;57.698;11.946;2022-07-22T14:01:46;8.78;;;2.47;;
13439;SDS011;6792;57.698;11.946;2022-07-22T14:04:15;10.35;;;2.65;;
13439;SDS011;6792;57.698;11.946;2022-07-22T14:06:47;6.87;;;2.40;;
13439;SDS011;6792;57.698;11.946;2022-07-22T14:09:18;11.78;;;2.40;;
13439;SDS011;6792;57.698;11.946;2022-07-22T14:11:50;14.23;;;2.92;;
13439;SDS011;6792;57.698;11.946;2022-07-22T14:14:19;10.00;;;2.52;;
13439;SDS011;6792;57.698;11.946;2022-07-22T14:16:48;11.43;;;2.62;;
13439;SDS011;6792;57.698;11.946;2022-07-22T14:19:17;12.20;;;2.80;;
13439;SDS011;6792;57.698;11.946;2022-07-22T14:21:48;8.78;;;2.30;;
13439;SDS011;6792;57.698;11.946;2022-07-22T14:24:17;11.55;;;2.50;;
13439;SDS011;6792;57.698;11.946;2022-07-22T14:26:46;10.93;;;2.70;;
13439;SDS011;6792;57.698;11.946;2022-07-22T14:29:15;8.25;;;2.45;;
13439;SDS011;6792;57.698;11.946;2022-07-22T14:31:48;15.13;;;2.80;;
13439;SDS011;6792;57.698;11.946;2022-07-22T14:34:17;9.63;;;2.60;;
13439;SDS011;6792;57.698;11.946;2022-07-22T14:36:48;14.40;;;2.27;;
13439;SDS011;6792;57.698;11.946;2022-07-22T14:39:17;10.30;;;2.60;;
13439;SDS011;6792;57.698;11.946;2022-07-22T14:41:45;12.60;;;2.62;;
13439;SDS011;6792;57.698;11.946;2022-07-22T14:44:15;7.47;;;2.50;;
13439;SDS011;6792;57.698;11.946;2022-07-22T14:46:44;12.18;;;2.75;;
13439;SDS011;6792;57.698;11.946;2022-07-22T14:49:13;10.93;;;2.50;;
13439;SDS011;6792;57.698;11.946;2022-07-22T14:51:43;4.97;;;1.95;;
13439;SDS011;6792;57.698;11.946;2022-07-22T14:54:14;9.60;;;2.95;;
13439;SDS011;6792;57.698;11.946;2022-07-22T14:56:43;10.55;;;2.75;;
13439;SDS011;6792;57.698;11.946;2022-07-22T14:59:14;9.00;;;2.87;;